Latest Coastal Weather Observations for Tewantin

IDQ60701

Issued at 11:32 am EST Tuesday 27 September 2022 (issued every 10 minutes, with the page automatically refreshed every 10 minutes)

About coastal observations | Map of coastal stations | Coastal observations for QLD | Marine services | Other Formats
Station Details ID: 040908 Name: TEWANTIN RSL PARK Lat: -26.39 Lon: 153.04 Height: 6.4 m
Data from the previous 72 hours. | See also: Recent months at Tewantin
Date/Time
EST
Wind Sea
Height
m
Swell Vis
km
Cloud Weather Temp
°C
Press
MSL
hPa
Rain since
9am
mm
Dir  Spd
kts
Gust
kts
Height
m
Period
s
Dir
27/11:30am N 5 8 - - - - - - - 23.9 1015.1 0.0
27/11:00am NNW 8 14 - - - - - - - 23.8 1015.3 0.0
27/10:30am N 8 12 - - - - - - - 23.4 1015.3 0.0
27/10:00am N 10 15 - - - - - - - 23.4 1015.9 0.0
27/09:30am N 9 14 - - - - - - - 23.2 1016.2 0.0
27/09:00am N 7 10 - - - - - - - 22.6 1016.6 0.0
27/08:30am N 4 7 - - - - - - - 21.0 1016.6 0.0
27/08:00am WNW 4 7 - - - - - - - 20.4 1016.9 0.0
27/07:30am NW 2 5 - - - - - - - 19.4 1016.6 0.0
27/07:00am WNW 4 6 - - - - - - - 18.6 1016.5 0.0
27/06:30am WNW 4 5 - - - - - - - 18.1 1016.1 0.0
27/06:00am WNW 4 5 - - - - - - - 18.0 1015.7 0.0
27/05:30am W 3 5 - - - - - - - 17.6 1015.5 0.0
27/05:00am NW 4 5 - - - - - - - 17.5 1015.2 0.0
27/04:30am WNW 2 4 - - - - - - - 17.4 1014.9 0.0
27/04:00am NW 4 6 - - - - - - - 17.2 1014.3 0.0
27/03:30am WNW 2 4 - - - - - - - 17.2 1014.3 0.0
27/03:00am W 4 5 - - - - - - - 17.3 1014.5 0.0
27/02:30am WNW 3 5 - - - - - - - 17.1 1014.4 0.0
27/02:00am WNW 4 5 - - - - - - - 17.4 1014.7 0.0
27/01:30am WNW 4 5 - - - - - - - 17.7 1014.8 0.0
27/01:00am NNW 3 5 - - - - - - - 17.9 1014.9 0.0
27/12:30am NW 3 4 - - - - - - - 18.1 1015.5 0.0
27/12:00am NNW 3 5 - - - - - - - 18.2 1015.8 0.0
 
Date/Time
EST
Wind Sea
Height
m
Swell Vis
km
Cloud Weather Temp
°C
Press
MSL
hPa
Rain since
9am
mm
Dir  Spd
kts
Gust
kts
Height
m
Period
s
Dir
26/11:30pm CALM 0 4 - - - - - - - 18.2 1016.1 0.0
26/11:00pm W 3 5 - - - - - - - 18.3 1016.1 0.0
26/10:30pm CALM 0 1 - - - - - - - 18.4 1016.2 0.0
26/10:00pm CALM 0 3 - - - - - - - 18.8 1016.0 0.0
26/09:30pm NW 2 4 - - - - - - - 19.3 1016.1 0.0
26/09:00pm NNW 4 7 - - - - - - - 20.1 1016.2 0.0
26/08:30pm N 6 8 - - - - - - - 20.2 1016.1 0.0
26/08:00pm N 7 9 - - - - - - - 20.5 1015.7 0.0
26/07:30pm N 6 9 - - - - - - - 20.7 1015.5 0.0
26/07:00pm N 7 9 - - - - - - - 20.8 1015.2 0.0
26/06:30pm N 6 8 - - - - - - - 20.9 1014.6 0.0
26/06:00pm N 7 10 - - - - - - - 21.1 1014.5 0.0
26/05:30pm NNE 8 14 - - - - - - - 21.6 1014.3 0.0
26/05:00pm NNE 8 13 - - - - - - - 21.9 1014.0 0.0
26/04:30pm NNE 10 16 - - - - - - - 22.3 1013.6 0.0
26/04:00pm NNE 9 17 - - - - - - - 22.5 1013.5 0.0
26/03:30pm NE 9 17 - - - - - - - 22.6 1013.3 0.0
26/03:00pm NE 9 14 - - - - - - - 23.7 1013.4 0.0
26/02:30pm NE 8 14 - - - - - - - 23.7 1013.6 0.0
26/02:00pm NE 8 13 - - - - - - - 24.5 1014.0 0.0
26/01:30pm NE 7 13 - - - - - - - 23.8 1014.6 0.0
26/01:00pm NNE 8 12 - - - - - - - 23.8 1014.9 0.0
26/12:30pm NNE 7 12 - - - - - - - 24.4 1015.3 0.0
26/12:00pm NE 6 9 - - - - - - - 24.1 1015.7 0.0
26/11:30am NE 6 10 - - - - - - - 25.1 1016.2 0.0
26/11:00am NNW 5 10 - - - - - - - 24.2 1016.8 0.0
26/10:30am NNE 6 10 - - - - - - - 24.6 1017.1 0.0
26/10:00am N 7 12 - - - - - - - 23.4 1017.4 0.0
26/09:30am N 5 9 - - - - - - - 23.0 1017.9 0.0
26/09:00am N 4 7 - - - - - - - 22.6 1017.8 0.0
26/08:30am NE 2 4 - - - - - - - 22.1 1017.7 0.0
26/08:00am NE 1 4 - - - - - - - 21.1 1017.8 0.0
26/07:30am CALM 0 0 - - - - - - - 19.3 1017.8 0.0
26/07:00am CALM 0 0 - - - - - - - 17.2 1017.5 0.0
26/06:30am CALM 0 0 - - - - - - - 15.8 1017.3 0.0
26/06:00am CALM 0 0 - - - - - - - 15.1 1017.0 0.0
26/05:30am CALM 0 0 - - - - - - - 14.9 1016.8 0.0
26/05:00am CALM 0 0 - - - - - - - 15.3 1017.0 0.0
26/04:30am CALM 0 0 - - - - - - - 15.3 1016.8 0.0
26/04:00am CALM 0 0 - - - - - - - 15.3 1016.5 0.0
26/03:30am CALM 0 0 - - - - - - - 15.9 1016.4 0.0
26/03:00am CALM 0 0 - - - - - - - 15.7 1016.4 0.0
26/02:30am CALM 0 3 - - - - - - - 15.7 1016.5 0.0
26/02:00am CALM 0 2 - - - - - - - 15.7 1016.5 0.0
26/01:30am CALM 0 0 - - - - - - - 16.1 1016.6 0.0
26/01:00am CALM 0 0 - - - - - - - 16.1 1016.9 0.0
26/12:30am CALM 0 0 - - - - - - - 16.2 1017.0 0.0
26/12:00am WNW 1 4 - - - - - - - 16.0 1017.2 0.0
 
Date/Time
EST
Wind Sea
Height
m
Swell Vis
km
Cloud Weather Temp
°C
Press
MSL
hPa
Rain since
9am
mm
Dir  Spd
kts
Gust
kts
Height
m
Period
s
Dir
25/11:30pm CALM 0 0 - - - - - - - 16.0 1017.3 0.0
25/11:00pm CALM 0 0 - - - - - - - 16.3 1017.1 0.0
25/10:30pm CALM 0 0 - - - - - - - 16.7 1017.0 0.0
25/10:00pm SW 1 4 - - - - - - - 16.9 1017.0 0.0
25/09:30pm CALM 0 0 - - - - - - - 17.1 1017.1 0.0
25/09:00pm SW 1 3 - - - - - - - 17.6 1017.0 0.0
25/08:30pm SW 2 4 - - - - - - - 18.2 1016.9 0.0
25/08:00pm SW 3 5 - - - - - - - 18.7 1016.6 0.0
25/07:30pm CALM 0 0 - - - - - - - 19.4 1016.3 0.0
25/07:00pm CALM 0 0 - - - - - - - 19.5 1015.9 0.0
25/06:30pm E 1 4 - - - - - - - 19.9 1015.4 0.0
25/06:00pm SE 4 6 - - - - - - - 20.4 1015.1 0.0
25/05:30pm ESE 6 9 - - - - - - - 20.9 1014.7 0.0
25/05:00pm E 6 10 - - - - - - - 21.4 1014.3 0.0
25/04:30pm E 7 11 - - - - - - - 21.8 1013.9 0.0
25/04:00pm E 8 11 - - - - - - - 22.3 1013.7 0.0
25/03:30pm E 8 11 - - - - - - - 22.8 1013.4 0.0
25/03:00pm E 7 10 - - - - - - - 23.5 1013.5 0.0
25/02:30pm ESE 7 11 - - - - - - - 23.6 1013.7 0.0
25/02:00pm E 7 11 - - - - - - - 23.9 1013.9 0.0
25/01:30pm E 8 12 - - - - - - - 24.6 1014.1 0.0
25/01:00pm SE 5 8 - - - - - - - 24.8 1014.6 0.0
25/12:30pm ESE 5 8 - - - - - - - 25.1 1015.0 0.0
25/12:00pm WSW 2 5 - - - - - - - 25.4 1015.3 0.0
25/11:30am S 7 11 - - - - - - - 24.7 1015.7 0.0
25/11:00am SSW 6 10 - - - - - - - 24.6 1016.0 0.0
25/10:30am SSW 5 9 - - - - - - - 24.5 1016.2 0.0
25/10:00am WSW 5 11 - - - - - - - 24.1 1016.4 0.0
25/09:30am WSW 7 12 - - - - - - - 23.6 1016.5 0.0
25/09:00am SW 6 10 - - - - - - - 23.4 1016.4 0.0
25/08:30am WSW 4 8 - - - - - - - 23.1 1016.4 0.0
25/08:00am WSW 3 8 - - - - - - - 22.5 1016.2 0.0
25/07:30am WSW 2 4 - - - - - - - 21.2 1016.0 0.0
25/07:00am WSW 4 6 - - - - - - - 19.2 1015.7 0.0
25/06:30am WSW 3 5 - - - - - - - 17.4 1015.4 0.0
25/06:00am CALM 0 0 - - - - - - - 15.6 1015.2 0.0
25/05:30am CALM 0 3 - - - - - - - 15.7 1014.9 0.0
25/05:00am WSW 1 4 - - - - - - - 16.2 1014.5 0.0
25/04:30am SW 3 4 - - - - - - - 16.6 1014.2 0.0
25/04:00am SW 2 5 - - - - - - - 18.1 1013.9 0.0
25/03:30am SW 3 6 - - - - - - - 18.5 1013.6 0.0
25/03:00am S 1 6 - - - - - - - 18.3 1013.6 0.0
25/02:30am SW 4 7 - - - - - - - 18.3 1013.5 0.0
25/02:00am SW 1 4 - - - - - - - 16.2 1013.7 0.0
25/01:30am CALM 0 0 - - - - - - - 16.6 1013.8 0.0
25/01:00am CALM 0 0 - - - - - - - 17.4 1013.9 0.0
25/12:30am CALM 0 3 - - - - - - - 17.9 1014.0 0.0
25/12:00am SW 2 4 - - - - - - - 18.4 1014.1 0.0
 
Date/Time
EST
Wind Sea
Height
m
Swell Vis
km
Cloud Weather Temp
°C
Press
MSL
hPa
Rain since
9am
mm
Dir  Spd
kts
Gust
kts
Height
m
Period
s
Dir
24/11:30pm WSW 3 5 - - - - - - - 18.2 1014.0 0.0
24/11:00pm WSW 2 5 - - - - - - - 19.0 1014.0 0.0
24/10:30pm WSW 3 5 - - - - - - - 19.1 1013.9 0.0
24/10:00pm WSW 2 5 - - - - - - - 18.1 1013.6 0.0
24/09:30pm CALM 0 0 - - - - - - - 18.2 1013.4 0.0
24/09:00pm WSW 1 4 - - - - - - - 19.5 1013.3 0.0
24/08:30pm SW 1 4 - - - - - - - 19.7 1012.9 0.0
24/08:00pm CALM 0 0 - - - - - - - 20.0 1012.5 0.0
24/07:30pm CALM 0 0 - - - - - - - 20.6 1012.1 0.0
24/07:00pm NNW 1 4 - - - - - - - 20.7 1011.6 0.0
24/06:30pm N 4 6 - - - - - - - 20.8 1011.2 0.0
24/06:00pm NNE 5 7 - - - - - - - 21.0 1010.8 0.0
24/05:30pm NNE 5 7 - - - - - - - 21.6 1010.4 0.0
24/05:00pm NE 4 7 - - - - - - - 22.3 1010.1 0.0
24/04:30pm NE 5 8 - - - - - - - 22.8 1009.9 0.0
24/04:00pm NE 7 11 - - - - - - - 23.1 1009.5 0.0
24/03:30pm NE 6 11 - - - - - - - 23.2 1009.4 0.0
24/03:00pm NNE 6 9 - - - - - - - 23.3 1009.4 0.0
24/02:30pm NE 6 11 - - - - - - - 23.4 1009.3 0.0
24/02:00pm WSW 4 7 - - - - - - - 27.7 1009.5 0.0
24/01:30pm W 7 13 - - - - - - - 27.9 1009.7 0.0
24/01:00pm WSW 7 12 - - - - - - - 27.3 1010.2 0.0
24/12:30pm WNW 5 10 - - - - - - - 27.0 1010.5 0.0
24/12:00pm WSW 5 11 - - - - - - - 26.7 1010.9 0.0

Other formats

Comma delimited format used in spreadsheet applications
http://www.bom.gov.au/fwo/IDQ60701/IDQ60701.94570.axf

JavaScript Object Notation format (JSON) in row-major order
http://www.bom.gov.au/fwo/IDQ60701/IDQ60701.94570.json

Data quality

Most of these data are generated automatically and are frequently updated. Quality checks on data are not normally performed. It is possible for incorrect values to appear. Refer to information at About Latest Weather Observations and please check the disclaimer before using these data.